Time;durP1;ratioP1;P1;durP2;ratioP2;P2;SDS_P1;SDS_P2;PMS_P1;PMS_P2;Temp;Humidity;BMP_temperature;BMP_pressure;BME280_temperature;BME280_humidity;BME280_pressure;Samples;Min_cycle;Max_cycle;Signal;HPM_P1;HPM_P2
2020/12/14 00:02:07;;;;;;;10.13;7.10;;;6.50;99.90;;;;;;5055197;28;20315;-84
2020/12/14 00:04:33;;;;;;;14.55;7.30;;;6.60;99.90;;;;;;5054956;28;20199;-82
2020/12/14 00:07:01;;;;;;;10.18;6.68;;;6.60;99.90;;;;;;5055169;28;20250;-82
2020/12/14 00:09:27;;;;;;;12.18;6.90;;;6.20;99.90;;;;;;5054906;28;20665;-81
2020/12/14 00:11:54;;;;;;;14.02;6.40;;;6.10;99.90;;;;;;5055075;28;20210;-83
2020/12/14 00:14:20;;;;;;;10.80;6.45;;;6.20;99.90;;;;;;5054983;28;20229;-82
2020/12/14 00:16:47;;;;;;;9.15;6.50;;;6.10;99.90;;;;;;5054907;28;20207;-83
2020/12/14 00:19:13;;;;;;;8.77;6.65;;;6.10;99.90;;;;;;5053873;28;20213;-83
2020/12/14 00:21:40;;;;;;;9.30;7.00;;;6.10;99.90;;;;;;5054726;28;20673;-82
2020/12/14 00:24:07;;;;;;;10.45;7.50;;;5.90;99.90;;;;;;5054680;28;20249;-83
2020/12/14 00:26:34;;;;;;;11.90;6.60;;;5.80;99.90;;;;;;5055107;28;20214;-86
2020/12/14 00:29:01;;;;;;;11.18;7.10;;;5.90;99.90;;;;;;5054646;28;20257;-85
2020/12/14 00:31:27;;;;;;;7.60;5.88;;;5.80;99.90;;;;;;5054811;28;20217;-86
2020/12/14 00:33:54;;;;;;;11.88;7.72;;;5.80;99.90;;;;;;5054949;28;20226;-85
2020/12/14 00:36:20;;;;;;;12.13;7.25;;;5.70;99.90;;;;;;5055041;28;20241;-85
2020/12/14 00:38:47;;;;;;;10.23;7.55;;;5.80;99.90;;;;;;5054821;28;20233;-85
2020/12/14 00:41:19;;;;;;;11.00;6.70;;;5.80;99.90;;;;;;5057257;28;20667;-84
2020/12/14 00:43:47;;;;;;;11.00;6.70;;;5.80;99.90;;;;;;5058746;28;20260;-84
2020/12/14 00:46:14;;;;;;;12.98;7.85;;;5.80;99.90;;;;;;5057398;28;20244;-84
2020/12/14 00:48:41;;;;;;;10.60;7.13;;;5.70;99.90;;;;;;5057607;28;20272;-84
2020/12/14 00:51:07;;;;;;;10.38;6.80;;;5.80;99.90;;;;;;5055527;28;20222;-85
2020/12/14 00:53:34;;;;;;;9.48;6.40;;;6.00;99.90;;;;;;5055682;28;20352;-85
2020/12/14 00:56:02;;;;;;;11.68;6.70;;;5.90;99.90;;;;;;5055096;28;20236;-83
2020/12/14 00:58:29;;;;;;;11.70;6.90;;;5.70;99.90;;;;;;5057002;28;20292;-83
2020/12/14 01:00:56;;;;;;;11.85;7.63;;;5.70;99.90;;;;;;5058978;28;20211;-82
2020/12/14 01:03:23;;;;;;;9.98;6.32;;;5.60;99.90;;;;;;5056679;28;20206;-82
2020/12/14 01:05:50;;;;;;;9.57;6.45;;;5.70;99.90;;;;;;5052972;28;20210;-83
2020/12/14 01:08:17;;;;;;;9.65;6.63;;;5.60;99.90;;;;;;5049137;28;20223;-83
2020/12/14 01:10:45;;;;;;;8.73;6.32;;;5.40;99.90;;;;;;5052834;28;20591;-84
2020/12/14 01:13:11;;;;;;;9.00;6.55;;;5.70;99.90;;;;;;5059074;28;20703;-84
2020/12/14 01:15:39;;;;;;;12.50;6.63;;;5.50;99.90;;;;;;5055089;28;20198;-85
2020/12/14 01:18:05;;;;;;;8.63;7.35;;;5.60;99.90;;;;;;5058183;28;20248;-85
2020/12/14 01:20:32;;;;;;;9.70;6.32;;;5.60;99.90;;;;;;5059342;28;20202;-84
2020/12/14 01:22:59;;;;;;;8.63;6.15;;;5.70;99.90;;;;;;5058362;28;20199;-82
2020/12/14 01:25:25;;;;;;;9.82;6.90;;;5.70;99.90;;;;;;5056561;28;20613;-84
2020/12/14 01:27:52;;;;;;;10.50;6.53;;;5.70;99.90;;;;;;5058751;28;20233;-84
2020/12/14 01:30:18;;;;;;;12.85;6.40;;;5.70;99.90;;;;;;5059544;28;20214;-84
2020/12/14 01:32:46;;;;;;;10.13;6.15;;;5.80;99.90;;;;;;5057638;28;20665;-84
2020/12/14 01:35:12;;;;;;;8.38;6.40;;;5.70;99.90;;;;;;5056763;28;20495;-84
2020/12/14 01:37:39;;;;;;;10.38;6.45;;;5.60;99.90;;;;;;5056625;28;20214;-82
2020/12/14 01:40:05;;;;;;;8.85;6.68;;;5.50;99.90;;;;;;5056547;28;20203;-82
2020/12/14 01:42:32;;;;;;;8.32;6.00;;;5.90;99.90;;;;;;5056318;28;20226;-82
2020/12/14 01:44:59;;;;;;;9.55;5.88;;;5.80;99.90;;;;;;5057969;28;20238;-82
2020/12/14 01:47:35;;;;;;;9.00;6.13;;;5.40;99.90;;;;;;5058642;28;20564;-83
2020/12/14 01:50:03;;;;;;;8.73;5.32;;;5.30;99.90;;;;;;5065084;28;20206;-83
2020/12/14 01:52:30;;;;;;;9.57;6.00;;;5.50;99.90;;;;;;5059721;28;20228;-86
2020/12/14 01:55:00;;;;;;;12.02;6.95;;;5.50;99.90;;;;;;5049496;28;20340;-83
2020/12/14 01:57:27;;;;;;;10.13;5.97;;;5.60;99.90;;;;;;5048441;28;20234;-83
2020/12/14 01:59:56;;;;;;;7.53;5.10;;;5.40;99.90;;;;;;5038520;28;20211;-83
2020/12/14 02:02:22;;;;;;;8.70;6.07;;;5.60;99.90;;;;;;5038304;28;20211;-84
2020/12/14 02:04:52;;;;;;;7.97;6.05;;;5.60;99.90;;;;;;5057663;28;20210;-86
2020/12/14 02:07:19;;;;;;;10.15;6.38;;;5.30;99.90;;;;;;5057976;28;20723;-84
2020/12/14 02:09:48;;;;;;;7.93;5.22;;;5.50;99.90;;;;;;5058584;28;20260;-86
2020/12/14 02:12:14;;;;;;;9.13;6.57;;;5.30;99.90;;;;;;5058463;28;20210;-85
2020/12/14 02:14:41;;;;;;;12.30;7.07;;;5.00;99.90;;;;;;5058744;28;20226;-81
2020/12/14 02:17:08;;;;;;;9.05;6.25;;;5.10;99.90;;;;;;5063612;28;20227;-85
2020/12/14 02:19:35;;;;;;;9.55;5.95;;;4.90;99.90;;;;;;5062539;28;20739;-83
2020/12/14 02:22:04;;;;;;;9.68;6.68;;;5.00;99.90;;;;;;5058189;28;20234;-83
2020/12/14 02:24:32;;;;;;;8.63;5.97;;;5.20;99.90;;;;;;5059806;28;20230;-81
2020/12/14 02:26:59;;;;;;;9.23;6.68;;;5.20;99.90;;;;;;5058410;28;20226;-84
2020/12/14 02:29:25;;;;;;;8.88;5.90;;;5.10;99.90;;;;;;5058988;28;20199;-82
2020/12/14 02:31:52;;;;;;;9.73;6.30;;;5.00;99.90;;;;;;5057359;28;20232;-84
2020/12/14 02:34:18;;;;;;;9.48;5.60;;;5.20;99.90;;;;;;5056551;28;20291;-85
2020/12/14 02:36:45;;;;;;;10.57;6.45;;;5.00;99.90;;;;;;5054816;28;20610;-86
2020/12/14 02:39:11;;;;;;;9.77;6.65;;;5.10;99.90;;;;;;5056268;28;20202;-82
2020/12/14 02:41:39;;;;;;;9.15;5.70;;;4.90;99.90;;;;;;5057113;28;20280;-85
2020/12/14 02:44:05;;;;;;;10.30;6.93;;;5.10;99.90;;;;;;5061963;28;20282;-82
2020/12/14 02:46:32;;;;;;;8.40;6.03;;;5.00;99.90;;;;;;5062001;28;20202;-82
2020/12/14 02:48:58;;;;;;;8.65;5.63;;;5.00;99.90;;;;;;5060570;28;20218;-84
2020/12/14 02:51:25;;;;;;;8.48;5.30;;;4.90;99.90;;;;;;5061669;28;20237;-86
2020/12/14 02:53:51;;;;;;;8.65;5.60;;;5.00;99.90;;;;;;5061423;28;20727;-83
2020/12/14 02:56:19;;;;;;;8.10;5.70;;;4.90;99.90;;;;;;5061179;28;20214;-83
2020/12/14 02:58:47;;;;;;;8.57;6.03;;;5.00;99.90;;;;;;5059310;28;20226;-83
2020/12/14 03:01:13;;;;;;;7.65;5.50;;;4.80;99.90;;;;;;5061553;28;20829;-84
2020/12/14 03:03:40;;;;;;;7.72;5.45;;;4.90;99.90;;;;;;5059168;28;20590;-83
2020/12/14 03:06:07;;;;;;;9.23;5.65;;;4.80;99.90;;;;;;5058668;28;20649;-84
2020/12/14 03:08:33;;;;;;;8.93;5.90;;;4.70;99.90;;;;;;5059308;28;20704;-83
2020/12/14 03:11:00;;;;;;;8.32;6.22;;;4.90;99.90;;;;;;5058865;28;20784;-84
2020/12/14 03:13:26;;;;;;;9.35;5.88;;;5.00;99.90;;;;;;5059544;28;20314;-85
2020/12/14 03:15:54;;;;;;;10.73;5.90;;;4.90;99.90;;;;;;5061084;28;20198;-85
2020/12/14 03:18:20;;;;;;;7.97;5.45;;;5.10;99.90;;;;;;5062118;28;20231;-81
2020/12/14 03:20:47;;;;;;;8.60;5.78;;;5.20;99.90;;;;;;5058997;28;20234;-84
2020/12/14 03:23:13;;;;;;;9.05;5.57;;;5.10;99.90;;;;;;5058232;28;20270;-84
2020/12/14 03:25:42;;;;;;;11.80;5.55;;;5.00;99.90;;;;;;5057600;28;20649;-84
2020/12/14 03:28:08;;;;;;;10.00;5.82;;;5.00;99.90;;;;;;5048311;28;20672;-85
2020/12/14 03:30:35;;;;;;;10.07;5.72;;;4.90;99.90;;;;;;5056739;28;20207;-84
2020/12/14 03:33:02;;;;;;;8.77;6.05;;;4.90;99.90;;;;;;5057914;28;20232;-85
2020/12/14 03:35:29;;;;;;;12.73;5.70;;;5.00;99.90;;;;;;5057972;28;20229;-84
2020/12/14 03:37:56;;;;;;;9.93;5.63;;;4.90;99.90;;;;;;5061969;28;20636;-85
2020/12/14 03:40:22;;;;;;;8.02;5.47;;;4.80;99.90;;;;;;5057814;28;20234;-85
2020/12/14 03:42:49;;;;;;;8.82;5.50;;;4.80;99.90;;;;;;5056648;28;20206;-85
2020/12/14 03:45:15;;;;;;;7.63;4.78;;;4.70;99.90;;;;;;5056307;28;20241;-84
2020/12/14 03:47:42;;;;;;;7.40;5.22;;;4.70;99.90;;;;;;5055506;28;20230;-85
2020/12/14 03:50:09;;;;;;;8.05;5.38;;;4.80;99.90;;;;;;5055999;28;20211;-85
2020/12/14 03:52:36;;;;;;;9.50;5.43;;;4.70;99.90;;;;;;5056522;28;20211;-85
2020/12/14 03:55:02;;;;;;;9.02;5.35;;;4.80;99.90;;;;;;5056114;28;20229;-85
2020/12/14 03:57:31;;;;;;;9.45;5.80;;;4.90;99.90;;;;;;5056006;28;20270;-85
2020/12/14 03:59:57;;;;;;;7.68;5.00;;;5.00;99.90;;;;;;5056678;28;20236;-82
2020/12/14 04:02:26;;;;;;;8.35;4.80;;;4.80;99.90;;;;;;5056399;28;20209;-83
2020/12/14 04:04:53;;;;;;;7.43;4.85;;;5.00;99.90;;;;;;5057532;28;20249;-83
2020/12/14 04:07:21;;;;;;;7.47;5.18;;;4.90;99.90;;;;;;5064341;28;20287;-81
2020/12/14 04:09:47;;;;;;;9.27;5.88;;;4.70;99.90;;;;;;5059656;28;20203;-83
2020/12/14 04:12:14;;;;;;;8.50;5.78;;;4.90;99.90;;;;;;5055880;28;20201;-82
2020/12/14 04:14:40;;;;;;;8.65;5.50;;;4.90;99.90;;;;;;5055255;28;20303;-84
2020/12/14 04:17:07;;;;;;;6.93;5.07;;;4.70;99.90;;;;;;5054931;28;20302;-83
2020/12/14 04:19:33;;;;;;;7.78;5.57;;;4.80;99.90;;;;;;5055313;28;20218;-84
2020/12/14 04:22:00;;;;;;;9.13;6.05;;;4.70;99.90;;;;;;5053280;28;20214;-84
2020/12/14 04:24:27;;;;;;;8.73;5.20;;;4.80;99.90;;;;;;5051798;28;20195;-82
2020/12/14 04:26:54;;;;;;;8.98;6.00;;;4.70;99.90;;;;;;5052255;28;20841;-82
2020/12/14 04:29:20;;;;;;;7.20;5.43;;;4.60;99.90;;;;;;5051023;28;20206;-82
2020/12/14 04:31:47;;;;;;;9.73;5.55;;;4.80;99.90;;;;;;5051663;28;20272;-82
2020/12/14 04:34:14;;;;;;;8.43;5.78;;;4.80;99.90;;;;;;5051492;28;20234;-82
2020/12/14 04:36:44;;;;;;;8.30;5.20;;;4.70;99.90;;;;;;5052063;28;20209;-83
2020/12/14 04:39:11;;;;;;;8.05;5.15;;;4.80;99.90;;;;;;5050428;28;20210;-83
2020/12/14 04:41:38;;;;;;;9.07;5.82;;;4.60;99.90;;;;;;5032294;28;20233;-82
2020/12/14 04:44:07;;;;;;;7.97;4.80;;;4.70;99.90;;;;;;5031875;28;20245;-83
2020/12/14 04:46:35;;;;;;;11.45;6.25;;;4.60;99.90;;;;;;5051197;28;20202;-82
2020/12/14 04:49:03;;;;;;;10.98;5.47;;;4.40;99.90;;;;;;5057083;28;20226;-81
2020/12/14 04:51:31;;;;;;;9.85;6.10;;;4.70;99.90;;;;;;5057234;28;20210;-82
2020/12/14 04:54:00;;;;;;;8.25;5.65;;;4.40;99.90;;;;;;5051338;28;20669;-81
2020/12/14 04:56:28;;;;;;;8.30;5.10;;;4.40;99.90;;;;;;5051239;28;20684;-81
2020/12/14 04:58:55;;;;;;;8.05;5.78;;;4.60;99.90;;;;;;5050895;28;20279;-82
2020/12/14 05:01:22;;;;;;;9.80;6.05;;;4.50;99.90;;;;;;5050866;28;20210;-83
2020/12/14 05:03:49;;;;;;;9.20;6.40;;;4.60;99.90;;;;;;5051587;28;20214;-82
2020/12/14 05:06:16;;;;;;;10.43;5.65;;;4.40;99.90;;;;;;5052730;28;20204;-82
2020/12/14 05:08:42;;;;;;;9.18;5.72;;;4.60;99.90;;;;;;5051461;28;20222;-81
2020/12/14 05:11:09;;;;;;;8.75;5.70;;;4.80;99.90;;;;;;5051091;28;20276;-82
2020/12/14 05:13:36;;;;;;;9.23;5.45;;;4.50;99.90;;;;;;5051646;28;20229;-85
2020/12/14 05:16:04;;;;;;;9.75;6.10;;;4.60;99.90;;;;;;5051294;28;20649;-82
2020/12/14 05:18:30;;;;;;;9.27;5.80;;;4.50;99.90;;;;;;5049927;28;20234;-82
2020/12/14 05:20:59;;;;;;;8.07;5.68;;;4.50;99.90;;;;;;5052742;28;20290;-82
2020/12/14 05:23:26;;;;;;;8.52;5.80;;;4.50;99.90;;;;;;5056755;28;20252;-82
2020/12/14 05:26:04;;;;;;;8.88;5.55;;;4.60;99.90;;;;;;5055474;28;20280;-82
2020/12/14 05:28:31;;;;;;;11.82;6.53;;;4.40;99.90;;;;;;5054441;28;20262;-82
2020/12/14 05:30:57;;;;;;;11.48;6.43;;;4.50;99.90;;;;;;5043260;28;20277;-82
2020/12/14 05:33:27;;;;;;;9.13;5.63;;;4.60;99.90;;;;;;5031460;28;20218;-82
2020/12/14 05:35:54;;;;;;;8.32;5.88;;;4.50;99.90;;;;;;5042358;28;20210;-82
2020/12/14 05:38:23;;;;;;;10.70;6.10;;;4.60;99.90;;;;;;5051088;28;20230;-83
2020/12/14 05:40:52;;;;;;;9.80;5.90;;;4.50;99.90;;;;;;5052170;28;20203;-82
2020/12/14 05:43:20;;;;;;;10.93;6.22;;;4.60;99.90;;;;;;5056050;28;20199;-82
2020/12/14 05:45:48;;;;;;;8.75;6.10;;;4.80;99.90;;;;;;5056462;28;20285;-82
2020/12/14 05:48:30;;;;;;;10.10;6.25;;;4.80;99.90;;;;;;5046841;28;20290;-83
2020/12/14 05:50:59;;;;;;;8.15;5.60;;;4.90;99.90;;;;;;5055336;28;20210;-82
2020/12/14 05:53:37;;;;;;;10.38;6.25;;;4.90;99.90;;;;;;5056899;28;20221;-82
2020/12/14 05:56:05;;;;;;;14.10;6.55;;;5.00;99.90;;;;;;5058969;28;20206;-82
2020/12/14 05:58:33;;;;;;;14.63;7.82;;;4.80;99.90;;;;;;5055530;28;20230;-82
2020/12/14 06:01:01;;;;;;;10.15;6.22;;;4.60;99.90;;;;;;5037670;28;20215;-82
2020/12/14 06:03:29;;;;;;;10.63;6.93;;;4.90;99.90;;;;;;5039006;28;20211;-82
2020/12/14 06:06:00;;;;;;;10.15;6.75;;;4.70;99.90;;;;;;5055589;28;20598;-82
2020/12/14 06:09:12;;;;;;;11.35;6.45;;;4.90;99.90;;;;;;5057328;28;20276;-83
2020/12/14 06:11:38;;;;;;;10.02;6.63;;;4.70;99.90;;;;;;5041888;28;20202;-82
2020/12/14 06:14:05;;;;;;;10.00;6.43;;;4.90;99.90;;;;;;5056701;28;20224;-83
2020/12/14 06:16:34;;;;;;;9.50;6.88;;;4.80;99.90;;;;;;5058743;28;20214;-83
2020/12/14 06:19:02;;;;;;;13.68;7.25;;;4.70;99.90;;;;;;5058307;28;20250;-83
2020/12/14 06:21:32;;;;;;;12.55;7.35;;;4.80;99.90;;;;;;5060425;28;20230;-83
2020/12/14 06:24:01;;;;;;;12.55;7.10;;;5.00;99.90;;;;;;5065750;28;20214;-83
2020/12/14 06:26:28;;;;;;;11.95;7.07;;;5.00;99.90;;;;;;5058716;28;20207;-83
2020/12/14 06:28:55;;;;;;;11.55;6.00;;;5.00;99.90;;;;;;5047883;28;20233;-83
2020/12/14 06:31:33;;;;;;;11.95;7.30;;;5.10;99.90;;;;;;5040631;28;20207;-82
2020/12/14 06:34:02;;;;;;;13.35;6.85;;;4.90;99.90;;;;;;5047555;28;20215;-82
2020/12/14 06:36:37;;;;;;;12.18;7.72;;;5.20;99.90;;;;;;5052363;28;20210;-82
2020/12/14 06:39:20;;;;;;;9.77;6.88;;;5.10;99.90;;;;;;5039725;28;20246;-82
2020/12/14 06:41:47;;;;;;;11.48;7.70;;;5.00;99.90;;;;;;5050358;28;20198;-82
2020/12/14 06:44:15;;;;;;;11.48;6.75;;;5.10;99.90;;;;;;5055081;28;20209;-81
2020/12/14 06:46:42;;;;;;;12.70;8.10;;;5.20;99.90;;;;;;5055881;28;20203;-81
2020/12/14 06:49:09;;;;;;;12.35;8.00;;;5.00;99.90;;;;;;5055546;28;20305;-83
2020/12/14 06:51:52;;;;;;;10.48;6.78;;;5.30;99.90;;;;;;5056200;28;20214;-84
2020/12/14 06:54:41;;;;;;;14.00;7.07;;;5.20;99.90;;;;;;5056373;28;20762;-83
2020/12/14 06:57:09;;;;;;;14.82;7.38;;;5.00;99.90;;;;;;5054870;28;20313;-84
2020/12/14 06:59:36;;;;;;;11.10;7.57;;;5.20;99.90;;;;;;5057255;28;20221;-82
2020/12/14 07:02:05;;;;;;;15.30;8.40;;;5.00;99.90;;;;;;5043538;28;20271;-84
2020/12/14 07:04:40;;;;;;;13.55;8.48;;;5.20;99.90;;;;;;5044480;28;20642;-83
2020/12/14 07:07:31;;;;;;;12.93;7.65;;;5.30;99.90;;;;;;5057254;28;20256;-84
2020/12/14 07:10:15;;;;;;;12.57;8.75;;;5.30;99.90;;;;;;5032825;28;20325;-83
2020/12/14 07:12:47;;;;;;;13.57;7.95;;;5.20;99.90;;;;;;5036308;28;20691;-84
2020/12/14 07:15:28;;;;;;;15.85;8.88;;;5.20;99.90;;;;;;5051691;28;20222;-82
2020/12/14 07:18:09;;;;;;;13.23;9.18;;;5.30;99.90;;;;;;5056812;28;20222;-87
2020/12/14 07:20:44;;;;;;;13.27;7.97;;;5.10;99.90;;;;;;5045414;28;20730;-85
2020/12/14 07:23:15;;;;;;;13.65;8.13;;;5.30;99.90;;;;;;5057457;28;20238;-85
2020/12/14 07:25:46;;;;;;;14.70;8.45;;;5.20;99.90;;;;;;5057911;28;20229;-83
2020/12/14 07:28:13;;;;;;;15.25;7.97;;;5.20;99.90;;;;;;5044662;28;20717;-83
2020/12/14 07:30:40;;;;;;;12.73;7.53;;;5.20;99.90;;;;;;5049593;28;20203;-84
2020/12/14 07:33:09;;;;;;;11.38;7.53;;;5.30;99.90;;;;;;5036702;28;20887;-84
2020/12/14 07:35:38;;;;;;;14.27;8.35;;;5.10;99.90;;;;;;5036619;28;20242;-83
2020/12/14 07:38:12;;;;;;;11.70;7.78;;;5.40;99.90;;;;;;5053006;28;20725;-84
2020/12/14 07:40:38;;;;;;;13.95;7.47;;;5.30;99.90;;;;;;5056201;28;20713;-82
2020/12/14 07:43:05;;;;;;;14.25;8.45;;;5.20;99.90;;;;;;5041965;28;20203;-83
2020/12/14 07:45:31;;;;;;;12.15;7.90;;;5.00;99.90;;;;;;5041624;28;20213;-83
2020/12/14 07:47:58;;;;;;;15.20;9.20;;;5.00;99.90;;;;;;5049891;28;20223;-84
2020/12/14 07:50:26;;;;;;;12.15;8.07;;;5.20;99.90;;;;;;5048440;28;20260;-83
2020/12/14 07:52:54;;;;;;;14.23;8.85;;;4.90;99.90;;;;;;5048140;28;20693;-83
2020/12/14 07:55:22;;;;;;;15.52;9.43;;;5.10;99.90;;;;;;5046740;28;20227;-84
2020/12/14 07:57:50;;;;;;;14.73;9.80;;;5.40;99.90;;;;;;5047045;28;20257;-85
2020/12/14 08:00:20;;;;;;;13.13;8.43;;;5.20;99.90;;;;;;5043626;28;20269;-84
2020/12/14 08:02:48;;;;;;;14.73;9.48;;;5.30;99.90;;;;;;5051684;28;20609;-84
2020/12/14 08:05:16;;;;;;;15.35;8.85;;;5.10;99.90;;;;;;5054758;28;20587;-84
2020/12/14 08:07:46;;;;;;;12.60;8.35;;;5.50;99.90;;;;;;5041489;28;20214;-83
2020/12/14 08:10:18;;;;;;;14.52;9.43;;;5.50;99.90;;;;;;5054443;28;20472;-84
2020/12/14 08:12:47;;;;;;;14.77;9.10;;;5.60;99.90;;;;;;5054751;28;20208;-84
2020/12/14 08:15:15;;;;;;;13.75;9.25;;;5.50;99.90;;;;;;5039982;28;20223;-85
2020/12/14 08:17:42;;;;;;;15.73;9.73;;;5.50;99.90;;;;;;5040755;28;20223;-82
2020/12/14 08:20:25;;;;;;;14.90;9.63;;;5.50;99.90;;;;;;5054454;28;20198;-84
2020/12/14 08:22:53;;;;;;;14.98;9.60;;;5.50;99.90;;;;;;5056336;28;20260;-84
2020/12/14 08:25:24;;;;;;;16.15;9.70;;;5.80;99.90;;;;;;5057807;28;20226;-83
2020/12/14 08:27:54;;;;;;;15.70;10.40;;;5.80;99.90;;;;;;5049346;28;20637;-84
2020/12/14 08:30:22;;;;;;;16.70;8.95;;;5.70;99.90;;;;;;5049651;28;20347;-86
2020/12/14 08:33:11;;;;;;;16.02;9.95;;;5.60;99.90;;;;;;5051914;28;20203;-87
2020/12/14 08:35:38;;;;;;;16.30;9.50;;;5.80;99.90;;;;;;5039407;28;20242;-85
2020/12/14 08:38:07;;;;;;;22.05;11.23;;;5.90;99.90;;;;;;5035514;28;20284;-84
2020/12/14 08:40:35;;;;;;;16.38;10.10;;;5.90;99.90;;;;;;5050950;28;20194;-83
2020/12/14 08:43:10;;;;;;;17.05;10.40;;;5.90;99.90;;;;;;5058077;28;20259;-83
2020/12/14 08:45:39;;;;;;;17.95;9.90;;;5.90;99.90;;;;;;5044429;28;20215;-84
2020/12/14 08:48:06;;;;;;;15.13;9.10;;;6.30;99.90;;;;;;5042754;28;20306;-84
2020/12/14 08:50:32;;;;;;;13.70;8.60;;;6.00;99.90;;;;;;5049164;28;20206;-82
2020/12/14 08:53:00;;;;;;;13.48;8.77;;;6.00;99.90;;;;;;5053741;28;20207;-84
2020/12/14 08:55:35;;;;;;;13.45;9.43;;;6.20;99.90;;;;;;5053479;28;20210;-84
2020/12/14 08:58:01;;;;;;;14.70;9.15;;;6.20;99.90;;;;;;5044201;28;20227;-84
2020/12/14 09:00:29;;;;;;;12.65;8.70;;;6.50;99.90;;;;;;5036299;28;20284;-86
2020/12/14 09:03:00;;;;;;;19.42;10.00;;;6.60;99.90;;;;;;5034911;28;20519;-84
2020/12/14 09:05:26;;;;;;;12.98;8.77;;;6.60;99.90;;;;;;5048041;28;20774;-86
2020/12/14 09:07:53;;;;;;;15.15;9.45;;;6.70;99.90;;;;;;5056228;28;20222;-82
2020/12/14 09:10:23;;;;;;;13.75;9.10;;;6.60;99.90;;;;;;5056223;28;20225;-85
2020/12/14 09:12:50;;;;;;;14.45;8.75;;;6.60;99.90;;;;;;5055959;28;20235;-83
2020/12/14 09:15:17;;;;;;;13.45;8.65;;;6.60;99.90;;;;;;5055101;28;20249;-84
2020/12/14 09:17:45;;;;;;;14.30;8.23;;;6.70;99.90;;;;;;5052578;28;20230;-83
2020/12/14 09:20:11;;;;;;;15.48;8.32;;;6.70;99.90;;;;;;5056702;28;20209;-83
2020/12/14 09:22:38;;;;;;;14.50;9.10;;;6.60;99.90;;;;;;5056065;28;20563;-84
2020/12/14 09:25:07;;;;;;;12.93;8.07;;;6.80;99.90;;;;;;5059711;28;20261;-84
2020/12/14 09:27:34;;;;;;;12.60;8.73;;;6.80;99.90;;;;;;5058448;28;20898;-82
2020/12/14 09:30:00;;;;;;;13.23;8.23;;;6.90;99.90;;;;;;5050433;28;20215;-82
2020/12/14 09:32:27;;;;;;;14.15;8.85;;;7.10;99.90;;;;;;5055218;28;20254;-83
2020/12/14 09:34:55;;;;;;;13.80;7.85;;;7.10;99.90;;;;;;5052238;28;20688;-81
2020/12/14 09:37:21;;;;;;;11.70;7.50;;;6.90;99.90;;;;;;5047758;28;20249;-84
2020/12/14 09:39:48;;;;;;;12.30;8.98;;;7.20;99.90;;;;;;5050853;28;20226;-83
2020/12/14 09:42:15;;;;;;;14.00;9.25;;;7.20;99.90;;;;;;5046084;28;20203;-83
2020/12/14 09:44:42;;;;;;;15.20;8.73;;;7.20;99.90;;;;;;5049530;28;20226;-83
2020/12/14 09:47:09;;;;;;;15.77;8.27;;;7.30;99.90;;;;;;5053768;28;20222;-84
2020/12/14 09:49:36;;;;;;;13.25;8.40;;;7.50;99.90;;;;;;5048401;28;20274;-82
2020/12/14 09:52:04;;;;;;;13.35;7.70;;;7.50;99.90;;;;;;5069363;28;20198;-84
2020/12/14 09:54:30;;;;;;;12.88;7.95;;;7.50;99.90;;;;;;5059771;28;20684;-85
2020/12/14 09:56:59;;;;;;;14.02;8.32;;;7.60;99.90;;;;;;5065491;28;20222;-84
2020/12/14 09:59:26;;;;;;;13.43;8.15;;;7.70;99.90;;;;;;5068171;28;20198;-83
2020/12/14 10:01:53;;;;;;;10.70;7.75;;;8.00;99.90;;;;;;5063570;28;20288;-84
2020/12/14 10:04:19;;;;;;;12.68;7.38;;;7.90;99.90;;;;;;5064541;28;20198;-83
2020/12/14 10:06:47;;;;;;;12.40;8.00;;;7.80;99.90;;;;;;5064495;28;20209;-84
2020/12/14 10:09:14;;;;;;;12.70;8.00;;;7.90;99.90;;;;;;5063429;28;20206;-84
2020/12/14 10:11:41;;;;;;;9.27;7.05;;;8.00;99.90;;;;;;5066282;28;20513;-85
2020/12/14 10:14:07;;;;;;;11.93;7.60;;;7.90;99.90;;;;;;5067424;28;20198;-84
2020/12/14 10:16:36;;;;;;;11.77;7.50;;;8.20;99.90;;;;;;5048659;28;20234;-83
2020/12/14 10:19:05;;;;;;;21.77;9.82;;;8.30;99.90;;;;;;5043056;28;20227;-84
2020/12/14 10:21:32;;;;;;;13.73;7.97;;;8.20;99.90;;;;;;5063250;28;20378;-84
2020/12/14 10:23:58;;;;;;;10.52;7.25;;;8.40;99.90;;;;;;5048519;28;20225;-86
2020/12/14 10:26:25;;;;;;;11.02;7.93;;;8.40;99.90;;;;;;5040562;28;20203;-84
2020/12/14 10:28:54;;;;;;;10.70;6.28;;;8.60;99.90;;;;;;5041161;28;20228;-84
2020/12/14 10:31:21;;;;;;;11.43;7.30;;;8.70;99.90;;;;;;5067995;28;20207;-84
2020/12/14 10:33:48;;;;;;;9.23;6.00;;;9.00;99.90;;;;;;5060954;28;20200;-83
2020/12/14 10:36:18;;;;;;;12.55;6.18;;;9.00;99.90;;;;;;5052338;28;20253;-85
2020/12/14 10:38:53;;;;;;;9.70;6.70;;;8.90;99.90;;;;;;5058589;28;20237;-85
2020/12/14 10:41:20;;;;;;;10.35;6.97;;;9.30;99.90;;;;;;5076459;28;20183;-85
2020/12/14 10:43:48;;;;;;;10.48;6.18;;;9.30;99.90;;;;;;5070143;28;20199;-86
2020/12/14 10:46:16;;;;;;;9.68;6.57;;;9.30;99.90;;;;;;5054046;28;20254;-84
2020/12/14 10:48:42;;;;;;;8.82;6.07;;;9.40;99.90;;;;;;5054408;28;20214;-84
2020/12/14 10:51:09;;;;;;;11.93;6.28;;;9.30;99.90;;;;;;5056591;28;20289;-83
2020/12/14 10:53:36;;;;;;;13.02;6.45;;;9.30;99.90;;;;;;5058314;28;20299;-84
2020/12/14 10:56:03;;;;;;;13.02;7.47;;;9.40;99.90;;;;;;5071053;28;20339;-83
2020/12/14 10:58:29;;;;;;;11.10;7.43;;;9.20;99.90;;;;;;5066181;28;20238;-84
2020/12/14 11:00:57;;;;;;;14.20;7.75;;;9.40;99.90;;;;;;5067696;28;20217;-83
2020/12/14 11:03:25;;;;;;;13.30;6.68;;;9.50;99.90;;;;;;5056339;28;20218;-85
2020/12/14 11:05:52;;;;;;;13.35;7.47;;;9.30;99.90;;;;;;5052469;28;20191;-78
2020/12/14 11:08:21;;;;;;;10.32;5.88;;;9.60;99.90;;;;;;5035135;28;20308;-79
2020/12/14 11:10:48;;;;;;;11.65;7.45;;;9.30;99.90;;;;;;5038636;28;20271;-85
2020/12/14 11:13:15;;;;;;;10.73;7.43;;;9.90;99.90;;;;;;5039308;28;20203;-83
2020/12/14 11:15:41;;;;;;;12.05;6.78;;;9.90;99.90;;;;;;5041705;28;20497;-76
2020/12/14 11:18:09;;;;;;;13.32;7.80;;;9.90;99.90;;;;;;5042457;28;20596;-82
2020/12/14 11:20:35;;;;;;;9.73;7.22;;;10.00;99.90;;;;;;5040089;28;20208;-83
2020/12/14 11:23:02;;;;;;;11.60;7.00;;;10.10;99.90;;;;;;5042222;28;20200;-84
2020/12/14 11:25:28;;;;;;;9.98;6.72;;;10.20;99.90;;;;;;5044341;28;20460;-84
2020/12/14 11:27:55;;;;;;;15.40;6.50;;;10.20;99.90;;;;;;5036130;28;20227;-85
2020/12/14 11:30:21;;;;;;;11.50;5.20;;;10.30;99.90;;;;;;5042084;28;21171;-85
2020/12/14 11:32:48;;;;;;;9.70;5.60;;;10.40;99.90;;;;;;5040240;28;20524;-77
2020/12/14 11:35:16;;;;;;;11.03;6.90;;;10.50;99.90;;;;;;5052121;28;20881;-77
2020/12/14 11:37:42;;;;;;;8.60;6.37;;;10.60;99.90;;;;;;5048678;28;20531;-79
2020/12/14 11:40:09;;;;;;;10.73;6.50;;;10.50;99.90;;;;;;5035272;28;20469;-78
2020/12/14 11:42:35;;;;;;;11.15;6.45;;;10.40;99.90;;;;;;5047217;28;20457;-84
2020/12/14 11:45:03;;;;;;;9.80;6.45;;;10.40;99.90;;;;;;5043103;28;20269;-83
2020/12/14 11:47:30;;;;;;;6.97;5.10;;;10.40;99.90;;;;;;5041506;28;20230;-84
2020/12/14 11:49:57;;;;;;;9.35;5.25;;;10.50;99.90;;;;;;5041388;28;20465;-84
2020/12/14 11:52:24;;;;;;;12.43;5.43;;;10.50;99.90;;;;;;5054698;28;20209;-83
2020/12/14 11:54:51;;;;;;;17.10;7.93;;;10.70;99.90;;;;;;5081860;28;20753;-84
2020/12/14 11:57:18;;;;;;;10.33;5.93;;;10.70;99.90;;;;;;5084295;28;20480;-83
2020/12/14 11:59:44;;;;;;;14.43;7.50;;;10.70;99.90;;;;;;5083882;28;20486;-85
2020/12/14 12:02:13;;;;;;;9.23;5.90;;;10.80;99.90;;;;;;5084472;28;20427;-84
2020/12/14 12:04:40;;;;;;;8.80;5.70;;;10.80;99.90;;;;;;5082205;28;20930;-83
2020/12/14 12:07:06;;;;;;;9.23;4.90;;;10.80;99.90;;;;;;5078772;28;20550;-83
2020/12/14 12:09:36;;;;;;;12.23;5.60;;;10.90;99.90;;;;;;5078954;28;20444;-80
2020/12/14 12:12:04;;;;;;;9.87;4.73;;;10.80;99.90;;;;;;5076559;28;20421;-83
2020/12/14 12:14:31;;;;;;;7.70;4.60;;;11.00;99.90;;;;;;5068745;28;20473;-81
2020/12/14 12:16:57;;;;;;;10.00;5.10;;;10.90;99.90;;;;;;5069798;28;20443;-77
2020/12/14 12:19:24;;;;;;;8.07;5.10;;;10.90;99.90;;;;;;5057012;28;20449;-78
2020/12/14 12:21:51;;;;;;;8.30;4.50;;;11.10;99.90;;;;;;5070256;28;20403;-81
2020/12/14 12:24:21;;;;;;;8.80;4.77;;;11.20;99.90;;;;;;5072237;28;20760;-84
2020/12/14 12:26:50;;;;;;;5.30;4.10;;;11.40;99.90;;;;;;5073274;28;20568;-82
2020/12/14 12:29:19;;;;;;;9.97;4.80;;;11.20;99.90;;;;;;5055017;28;20456;-82
2020/12/14 12:31:50;;;;;;;9.40;5.53;;;11.30;99.90;;;;;;5069194;28;20532;-82
2020/12/14 12:34:16;;;;;;;10.07;5.37;;;11.30;99.90;;;;;;5067135;28;20499;-83
2020/12/14 12:36:49;;;;;;;5.80;3.93;;;11.30;99.90;;;;;;5068348;28;20539;-83
2020/12/14 12:39:15;;;;;;;9.83;5.33;;;11.50;99.90;;;;;;5044948;28;20435;-82
2020/12/14 12:41:45;;;;;;;9.40;5.10;;;11.70;99.90;;;;;;5061780;28;20448;-82
2020/12/14 12:44:12;;;;;;;9.33;4.70;;;11.70;99.90;;;;;;5064868;28;20449;-82
2020/12/14 12:46:39;;;;;;;8.30;4.90;;;11.80;99.90;;;;;;5059459;28;20460;-81
2020/12/14 12:49:06;;;;;;;8.40;4.63;;;11.80;99.90;;;;;;5038528;28;20453;-81
2020/12/14 12:51:33;;;;;;;7.33;4.40;;;11.60;99.90;;;;;;5041111;28;20481;-81
2020/12/14 12:54:00;;;;;;;9.50;4.77;;;11.50;99.90;;;;;;5050354;28;20792;-77
2020/12/14 12:56:26;;;;;;;9.63;5.77;;;11.50;99.90;;;;;;5044308;28;20482;-77